Time;durP1;ratioP1;P1;durP2;ratioP2;P2;SDS_P1;SDS_P2;PMS_P1;PMS_P2;Temp;Humidity;BMP_temperature;BMP_pressure;BME280_temperature;BME280_humidity;BME280_pressure;Samples;Min_cycle;Max_cycle;Signal;HPM_P1;HPM_P2
2021/04/22 00:01:34;;;;;;;18.83;3.00;;;28.00;21.00;;;;;;5036632;28;20085;-64
2021/04/22 00:04:01;;;;;;;29.23;3.92;;;28.00;21.30;;;;;;5036579;28;20066;-64
2021/04/22 00:06:28;;;;;;;28.20;4.13;;;28.10;21.60;;;;;;5037139;28;20097;-64
2021/04/22 00:08:55;;;;;;;31.10;3.83;;;28.20;21.50;;;;;;5038409;28;20541;-65
2021/04/22 00:11:23;;;;;;;36.90;4.05;;;27.80;21.20;;;;;;5037762;28;20411;-63
2021/04/22 00:13:50;;;;;;;31.80;4.43;;;27.70;21.40;;;;;;5036712;28;20427;-63
2021/04/22 00:16:18;;;;;;;37.72;3.45;;;27.60;21.30;;;;;;5036446;28;20146;-64
2021/04/22 00:18:45;;;;;;;18.20;2.85;;;27.60;21.20;;;;;;5036879;28;20082;-65
2021/04/22 00:21:12;;;;;;;21.27;3.17;;;27.60;21.30;;;;;;5035493;28;20078;-66
2021/04/22 00:23:38;;;;;;;58.17;4.05;;;27.70;21.60;;;;;;5034622;28;20092;-64
2021/04/22 00:26:05;;;;;;;23.63;3.33;;;27.40;21.90;;;;;;5034990;28;20078;-65
2021/04/22 00:28:31;;;;;;;23.00;3.28;;;27.30;22.20;;;;;;5040754;28;20534;-67
2021/04/22 00:31:01;;;;;;;24.05;3.05;;;27.20;22.50;;;;;;5038784;28;20074;-67
2021/04/22 00:33:27;;;;;;;19.10;2.95;;;27.20;21.60;;;;;;5040013;28;20128;-64
2021/04/22 00:35:54;;;;;;;29.25;3.10;;;27.20;22.10;;;;;;5039043;28;20078;-65
2021/04/22 00:38:20;;;;;;;22.13;2.50;;;27.20;22.30;;;;;;5038949;28;20082;-64
2021/04/22 00:40:48;;;;;;;20.15;3.13;;;27.00;22.60;;;;;;5035165;28;20070;-64
2021/04/22 00:43:18;;;;;;;36.45;3.63;;;26.80;23.00;;;;;;5036203;28;20081;-63
2021/04/22 00:45:46;;;;;;;28.63;3.60;;;26.90;24.50;;;;;;5034317;28;20072;-65
2021/04/22 00:48:19;;;;;;;25.65;3.47;;;26.70;24.60;;;;;;5036449;28;20585;-64
2021/04/22 00:50:46;;;;;;;21.73;3.35;;;26.60;24.70;;;;;;5035482;28;20081;-64
2021/04/22 00:53:16;;;;;;;22.08;3.50;;;26.60;24.70;;;;;;5035544;28;20094;-66
2021/04/22 00:55:42;;;;;;;23.40;4.40;;;26.50;24.30;;;;;;5036859;28;20074;-63
2021/04/22 00:58:09;;;;;;;23.73;3.47;;;26.70;24.80;;;;;;5034818;28;20085;-64
2021/04/22 01:00:42;;;;;;;35.80;4.55;;;26.30;25.40;;;;;;5035027;28;20202;-65
2021/04/22 01:03:10;;;;;;;37.55;3.75;;;26.20;25.80;;;;;;5032895;28;20422;-64
2021/04/22 01:05:44;;;;;;;34.38;4.55;;;26.10;26.40;;;;;;5033271;28;20079;-65
2021/04/22 01:08:11;;;;;;;27.38;3.80;;;26.00;25.80;;;;;;5032678;28;20073;-64
2021/04/22 01:10:38;;;;;;;27.02;3.70;;;25.90;26.30;;;;;;5031555;28;20098;-63
2021/04/22 01:13:05;;;;;;;29.63;4.57;;;25.70;26.30;;;;;;5031567;28;20554;-64
2021/04/22 01:15:32;;;;;;;19.55;3.63;;;25.60;27.40;;;;;;5031945;28;20185;-64
2021/04/22 01:17:59;;;;;;;27.35;3.70;;;25.50;28.10;;;;;;5033556;28;20168;-64
2021/04/22 01:20:31;;;;;;;24.85;3.25;;;25.40;28.70;;;;;;5031554;28;20078;-64
2021/04/22 01:23:00;;;;;;;15.68;2.70;;;25.00;28.40;;;;;;5029903;28;20077;-64
2021/04/22 01:25:29;;;;;;;20.73;3.10;;;25.00;28.90;;;;;;5034782;28;20157;-65
2021/04/22 01:27:56;;;;;;;16.58;2.72;;;24.90;28.80;;;;;;5035622;28;20116;-63
2021/04/22 01:30:27;;;;;;;19.70;3.75;;;24.70;29.00;;;;;;5034330;28;20110;-65
2021/04/22 01:32:54;;;;;;;17.60;3.22;;;24.50;28.70;;;;;;5034909;28;20735;-63
2021/04/22 01:35:23;;;;;;;27.23;3.50;;;24.50;28.80;;;;;;5030598;28;20078;-62
2021/04/22 01:37:51;;;;;;;16.08;2.50;;;24.40;29.30;;;;;;5030733;28;20571;-62
2021/04/22 01:40:19;;;;;;;20.48;3.40;;;24.30;28.90;;;;;;5031710;28;20113;-62
2021/04/22 01:42:45;;;;;;;19.27;2.78;;;24.30;39.00;;;;;;5030687;28;20450;-64
2021/04/22 01:45:15;;;;;;;22.80;3.35;;;24.10;28.80;;;;;;5031800;28;20101;-63
2021/04/22 01:47:43;;;;;;;12.77;2.35;;;24.10;28.90;;;;;;5034842;28;20074;-63
2021/04/22 01:50:14;;;;;;;29.23;3.03;;;24.10;29.00;;;;;;5032738;28;20066;-62
2021/04/22 01:52:42;;;;;;;17.70;2.83;;;24.10;28.90;;;;;;5031020;28;20109;-62
2021/04/22 01:55:16;;;;;;;25.23;3.88;;;24.10;28.50;;;;;;5030232;28;20074;-62
2021/04/22 01:57:43;;;;;;;22.85;3.28;;;23.90;28.60;;;;;;5030699;28;20164;-63
2021/04/22 02:00:14;;;;;;;17.58;2.80;;;23.80;29.10;;;;;;5030213;28;20109;-63
2021/04/22 02:02:41;;;;;;;22.63;3.55;;;23.70;29.60;;;;;;5031332;28;20109;-63
2021/04/22 02:05:09;;;;;;;22.45;3.13;;;23.70;29.80;;;;;;5032459;28;20089;-63
2021/04/22 02:07:36;;;;;;;22.02;2.28;;;23.60;30.20;;;;;;5028644;28;20109;-61
2021/04/22 02:10:05;;;;;;;26.98;2.58;;;23.40;30.00;;;;;;5031160;28;20090;-61
2021/04/22 02:12:32;;;;;;;21.10;2.75;;;23.30;30.10;;;;;;5033478;28;20117;-64
2021/04/22 02:14:59;;;;;;;29.52;3.83;;;23.10;30.80;;;;;;5029875;28;20475;-64
2021/04/22 02:17:26;;;;;;;22.90;2.80;;;23.00;31.80;;;;;;5032432;28;20485;-62
2021/04/22 02:19:52;;;;;;;26.92;3.28;;;22.80;31.90;;;;;;5030147;28;20402;-63
2021/04/22 02:22:18;;;;;;;14.07;3.17;;;22.60;33.20;;;;;;5032026;28;20093;-61
2021/04/22 02:24:45;;;;;;;18.45;2.80;;;22.40;33.90;;;;;;5030664;28;20098;-64
2021/04/22 02:27:11;;;;;;;30.27;3.28;;;22.30;34.30;;;;;;5032635;28;20531;-63
2021/04/22 02:29:38;;;;;;;29.52;3.28;;;22.10;33.70;;;;;;5031698;28;20082;-62
2021/04/22 02:32:05;;;;;;;28.38;2.90;;;22.10;33.20;;;;;;5031625;28;20082;-64
2021/04/22 02:34:31;;;;;;;18.88;2.80;;;22.00;32.60;;;;;;5031657;28;20086;-62
2021/04/22 02:36:58;;;;;;;19.80;2.78;;;22.00;32.10;;;;;;5029107;28;20078;-64
2021/04/22 02:39:25;;;;;;;23.45;2.78;;;22.00;31.50;;;;;;5031379;28;20882;-64
2021/04/22 02:41:51;;;;;;;20.45;2.70;;;22.10;44.80;;;;;;5032851;28;20078;-64
2021/04/22 02:44:18;;;;;;;26.05;3.28;;;21.90;34.00;;;;;;5032574;28;20104;-63
2021/04/22 02:46:45;;;;;;;20.00;2.78;;;21.70;34.70;;;;;;5033144;28;20074;-65
2021/04/22 02:49:11;;;;;;;26.27;2.97;;;21.50;36.00;;;;;;5031918;28;20160;-63
2021/04/22 02:51:38;;;;;;;18.50;3.20;;;21.40;37.40;;;;;;5029772;28;20168;-63
2021/04/22 02:54:04;;;;;;;25.08;3.10;;;21.10;39.00;;;;;;5014667;28;20108;-64
2021/04/22 02:56:31;;;;;;;29.35;3.58;;;20.80;40.20;;;;;;5034112;28;20070;-62
2021/04/22 02:58:57;;;;;;;33.58;4.00;;;20.40;41.00;;;;;;5032305;28;20076;-64
2021/04/22 03:01:24;;;;;;;33.72;3.80;;;20.00;41.80;;;;;;5034004;28;20628;-62
2021/04/22 03:03:50;;;;;;;35.53;3.60;;;19.90;42.40;;;;;;5031564;28;20406;-66
2021/04/22 03:06:17;;;;;;;24.02;3.63;;;19.70;42.60;;;;;;5033992;28;20128;-64
2021/04/22 03:08:43;;;;;;;29.30;3.00;;;19.70;42.80;;;;;;5032875;28;20078;-64
2021/04/22 03:11:11;;;;;;;;;;;19.60;42.90;;;;;;5032691;28;20088;-63
2021/04/22 03:13:38;;;;;;;28.20;3.08;;;19.60;42.80;;;;;;5034860;28;20430;-62
2021/04/22 03:16:05;;;;;;;16.95;3.00;;;19.50;42.80;;;;;;5035508;28;20127;-64
2021/04/22 03:18:32;;;;;;;26.25;3.05;;;19.60;42.50;;;;;;5037234;28;20112;-61
2021/04/22 03:20:58;;;;;;;31.67;3.80;;;19.70;42.10;;;;;;5034825;28;20406;-63
2021/04/22 03:23:24;;;;;;;;;;;19.70;41.70;;;;;;5036166;28;20072;-63
2021/04/22 03:25:51;;;;;;;20.27;3.53;;;19.70;41.60;;;;;;5034739;28;20019;-63
2021/04/22 03:28:17;;;;;;;;;;;19.70;42.10;;;;;;5034835;28;21650;-64
2021/04/22 03:30:43;;;;;;;18.25;2.78;;;19.60;42.90;;;;;;5032630;28;20477;-64
2021/04/22 03:33:10;;;;;;;20.75;2.63;;;19.40;43.50;;;;;;5035424;28;20125;-65
2021/04/22 03:35:37;;;;;;;34.95;3.03;;;19.30;44.00;;;;;;5035696;28;20077;-66
2021/04/22 03:38:03;;;;;;;;;;;19.20;44.20;;;;;;5036497;28;20073;-63
2021/04/22 03:40:30;;;;;;;29.25;3.83;;;19.00;44.30;;;;;;5037508;28;19965;-62
2021/04/22 03:42:57;;;;;;;18.92;3.42;;;19.00;44.30;;;;;;5034561;28;20074;-66
2021/04/22 03:45:25;;;;;;;19.98;2.85;;;19.00;44.20;;;;;;5034497;28;20135;-67
2021/04/22 03:47:52;;;;;;;22.40;2.45;;;19.10;43.30;;;;;;5033859;28;20066;-67
2021/04/22 03:50:20;;;;;;;26.00;3.53;;;19.20;43.10;;;;;;5035568;28;20078;-66
2021/04/22 03:52:47;;;;;;;15.95;2.60;;;19.20;42.90;;;;;;5034053;28;20093;-66
2021/04/22 03:55:16;;;;;;;10.52;2.22;;;19.20;43.10;;;;;;5032324;28;20077;-66
2021/04/22 03:57:42;;;;;;;27.70;3.78;;;19.20;43.10;;;;;;5033388;28;20147;-62
2021/04/22 04:00:12;;;;;;;21.45;4.70;;;19.10;43.20;;;;;;5034393;28;20586;-65
2021/04/22 04:02:39;;;;;;;17.63;3.67;;;19.10;43.50;;;;;;5033083;28;20176;-64
2021/04/22 04:05:07;;;;;;;13.80;2.63;;;19.00;43.50;;;;;;5034065;28;20400;-64
2021/04/22 04:07:34;;;;;;;13.48;3.00;;;19.00;43.50;;;;;;5033217;28;20505;-65
2021/04/22 04:10:01;;;;;;;24.73;2.97;;;19.10;43.50;;;;;;5033277;28;20086;-62
2021/04/22 04:12:28;;;;;;;21.33;2.95;;;19.00;43.60;;;;;;5034644;28;20101;-64
2021/04/22 04:14:56;;;;;;;24.85;3.35;;;19.00;44.10;;;;;;5032573;28;20165;-63
2021/04/22 04:17:23;;;;;;;25.17;3.00;;;18.90;44.50;;;;;;5033882;28;20082;-63
2021/04/22 04:19:50;;;;;;;13.27;2.22;;;18.90;44.60;;;;;;5032303;28;20085;-63
2021/04/22 04:22:17;;;;;;;16.85;4.00;;;18.90;44.50;;;;;;5032700;28;20084;-62
2021/04/22 04:24:43;;;;;;;11.50;3.00;;;18.80;44.20;;;;;;5031763;28;20531;-63
2021/04/22 04:27:09;;;;;;;;;;;18.90;43.80;;;;;;5033527;28;20136;-64
2021/04/22 04:29:36;;;;;;;15.48;2.22;;;18.90;43.20;;;;;;5033065;28;19958;-63
2021/04/22 04:32:02;;;;;;;;;;;18.90;43.10;;;;;;5033222;28;20074;-62
2021/04/22 04:34:29;;;;;;;16.95;2.50;;;19.00;43.10;;;;;;5032610;28;19965;-63
2021/04/22 04:36:55;;;;;;;;;;;19.00;43.20;;;;;;5032027;28;20161;-62
2021/04/22 04:39:22;;;;;;;13.63;2.08;;;18.90;43.40;;;;;;5031950;28;20015;-65
2021/04/22 04:41:48;;;;;;;13.38;2.30;;;18.90;43.40;;;;;;5015114;28;20098;-62
2021/04/22 04:44:14;;;;;;;;;;;18.90;43.10;;;;;;5033950;28;20077;-64
2021/04/22 04:46:41;;;;;;;15.70;2.38;;;18.90;42.80;;;;;;5031282;28;20307;-63
2021/04/22 04:49:08;;;;;;;12.18;1.98;;;18.80;42.80;;;;;;5031855;28;20066;-63
2021/04/22 04:51:35;;;;;;;16.88;2.15;;;18.90;43.00;;;;;;5030700;28;20092;-63
2021/04/22 04:54:02;;;;;;;13.40;2.00;;;18.90;42.90;;;;;;5032783;28;20106;-61
2021/04/22 04:56:30;;;;;;;10.07;1.90;;;18.90;42.80;;;;;;5030927;28;20070;-63
2021/04/22 04:58:57;;;;;;;12.93;1.90;;;18.90;43.60;;;;;;5032539;28;20074;-63
2021/04/22 05:01:23;;;;;;;10.23;2.13;;;18.90;43.40;;;;;;5014191;28;20580;-63
2021/04/22 05:03:50;;;;;;;19.85;2.13;;;18.80;43.70;;;;;;5031041;28;20519;-62
2021/04/22 05:06:16;;;;;;;;;;;18.80;44.30;;;;;;5032302;28;20085;-61
2021/04/22 05:08:42;;;;;;;11.27;2.20;;;18.70;45.60;;;;;;5013969;28;20418;-62
2021/04/22 05:11:09;;;;;;;6.88;1.90;;;18.60;45.30;;;;;;5031035;28;20105;-62
2021/04/22 05:13:36;;;;;;;11.10;2.50;;;18.50;45.80;;;;;;5030862;28;20094;-62
2021/04/22 05:16:03;;;;;;;11.52;2.35;;;18.40;45.80;;;;;;5031795;28;20078;-63
2021/04/22 05:18:29;;;;;;;7.07;1.80;;;18.40;45.50;;;;;;5030673;28;20081;-63
2021/04/22 05:20:55;;;;;;;;;;;18.40;45.00;;;;;;5032725;28;20419;-61
2021/04/22 05:23:22;;;;;;;8.00;1.73;;;18.50;44.60;;;;;;5031558;28;19961;-64
2021/04/22 05:25:49;;;;;;;13.43;1.98;;;18.60;44.10;;;;;;5031811;28;20199;-62
2021/04/22 05:28:16;;;;;;;7.75;1.85;;;18.60;44.00;;;;;;5030797;28;20470;-63
2021/04/22 05:30:44;;;;;;;9.77;2.03;;;18.70;44.00;;;;;;5031664;28;20074;-63
2021/04/22 05:33:11;;;;;;;7.53;1.50;;;18.70;43.70;;;;;;5030965;28;20109;-65
2021/04/22 05:35:39;;;;;;;9.77;2.05;;;18.70;43.50;;;;;;5032898;28;20074;-63
2021/04/22 05:38:06;;;;;;;7.75;1.90;;;18.70;43.70;;;;;;5033640;28;20074;-63
2021/04/22 05:40:33;;;;;;;11.07;2.47;;;18.70;43.80;;;;;;5031016;28;20066;-64
2021/04/22 05:43:00;;;;;;;7.28;1.67;;;18.70;44.00;;;;;;5030757;28;20077;-62
2021/04/22 05:45:26;;;;;;;;;;;18.70;44.40;;;;;;5032393;28;20076;-64
2021/04/22 05:47:53;;;;;;;12.35;1.92;;;18.60;44.30;;;;;;5037999;28;19958;-63
2021/04/22 05:50:21;;;;;;;7.72;2.17;;;18.60;44.30;;;;;;5034926;28;20105;-63
2021/04/22 05:52:48;;;;;;;8.25;1.70;;;18.60;44.20;;;;;;5033921;28;20102;-64
2021/04/22 05:55:15;;;;;;;9.63;1.40;;;18.60;44.30;;;;;;5031453;28;20094;-64
2021/04/22 05:57:43;;;;;;;8.43;1.63;;;18.50;44.40;;;;;;5030840;28;20086;-63
2021/04/22 06:00:13;;;;;;;6.57;1.85;;;18.50;44.60;;;;;;5032174;28;20214;-64
2021/04/22 06:02:39;;;;;;;9.40;2.35;;;18.50;44.90;;;;;;5029763;28;20158;-63
2021/04/22 06:05:06;;;;;;;7.88;1.90;;;18.40;44.70;;;;;;5029996;28;20070;-62
2021/04/22 06:07:33;;;;;;;5.07;1.65;;;18.50;43.50;;;;;;5030722;28;20473;-62
2021/04/22 06:10:00;;;;;;;4.55;1.70;;;18.60;43.30;;;;;;5030226;28;20619;-61
2021/04/22 06:12:26;;;;;;;;;;;18.60;44.00;;;;;;5030462;28;20101;-62
2021/04/22 06:14:52;;;;;;;8.05;2.10;;;18.60;44.70;;;;;;5030393;28;20048;-63
2021/04/22 06:17:19;;;;;;;8.68;2.10;;;18.60;44.90;;;;;;5028995;28;20070;-60
2021/04/22 06:19:45;;;;;;;;;;;18.50;43.20;;;;;;5028154;28;20078;-61
2021/04/22 06:22:12;;;;;;;11.32;2.05;;;18.60;41.70;;;;;;5028826;28;20019;-61
2021/04/22 06:24:38;;;;;;;;;;;18.70;40.40;;;;;;5029682;28;20175;-62
2021/04/22 06:27:05;;;;;;;8.60;1.48;;;18.80;39.90;;;;;;5030390;28;20462;-62
2021/04/22 06:29:31;;;;;;;8.40;1.73;;;18.90;39.20;;;;;;5029556;28;20105;-61
2021/04/22 06:31:57;;;;;;;;;;;19.00;38.90;;;;;;5029185;28;20078;-62
2021/04/22 06:34:24;;;;;;;7.03;2.15;;;19.10;39.10;;;;;;5029500;28;20414;-63
2021/04/22 06:36:51;;;;;;;8.73;1.80;;;19.10;39.40;;;;;;5034449;28;20131;-62
2021/04/22 06:39:17;;;;;;;5.35;1.70;;;19.10;39.40;;;;;;5030435;28;20065;-62
2021/04/22 06:41:44;;;;;;;5.72;1.52;;;19.10;39.70;;;;;;5028629;28;20077;-62
2021/04/22 06:44:10;;;;;;;3.60;1.60;;;19.10;40.00;;;;;;5030112;28;20102;-63
2021/04/22 06:46:38;;;;;;;;;;;19.10;40.20;;;;;;5035260;28;20066;-61
2021/04/22 06:49:05;;;;;;;4.45;1.42;;;19.10;40.60;;;;;;5034608;28;19968;-62
2021/04/22 06:51:32;;;;;;;8.93;1.90;;;19.00;41.30;;;;;;5036948;28;20535;-62
2021/04/22 06:53:59;;;;;;;9.73;1.73;;;18.90;42.20;;;;;;5033408;28;20096;-62
2021/04/22 06:56:25;;;;;;;7.18;1.60;;;18.80;42.50;;;;;;5036067;28;20077;-62
2021/04/22 06:58:52;;;;;;;;;;;18.80;42.30;;;;;;5035423;28;20069;-62
2021/04/22 07:01:19;;;;;;;4.38;1.80;;;18.80;41.80;;;;;;5032953;28;20076;-63
2021/04/22 07:03:45;;;;;;;6.30;2.00;;;18.80;41.70;;;;;;5034949;28;20160;-62
2021/04/22 07:06:11;;;;;;;;;;;18.80;41.70;;;;;;5036885;28;20469;-61
2021/04/22 07:08:40;;;;;;;12.52;1.73;;;18.80;42.30;;;;;;5036675;28;20005;-62
2021/04/22 07:11:07;;;;;;;4.00;1.50;;;18.70;42.30;;;;;;5034840;28;20074;-62
2021/04/22 07:13:33;;;;;;;4.80;1.70;;;18.80;41.30;;;;;;5036164;28;20226;-62
2021/04/22 07:15:59;;;;;;;;;;;18.90;41.10;;;;;;5034718;28;20445;-62
2021/04/22 07:18:26;;;;;;;7.43;1.85;;;18.90;41.30;;;;;;5034389;28;20011;-60
2021/04/22 07:20:52;;;;;;;4.75;1.70;;;18.90;41.30;;;;;;5037671;28;20085;-62
2021/04/22 07:23:18;;;;;;;;;;;18.90;41.50;;;;;;5035667;28;20074;-61
2021/04/22 07:25:45;;;;;;;7.53;2.08;;;18.80;42.90;;;;;;5034229;28;20483;-60
2021/04/22 07:28:15;;;;;;;5.00;1.55;;;18.60;45.00;;;;;;5034944;28;20157;-62
2021/04/22 07:30:42;;;;;;;5.72;1.85;;;18.40;45.30;;;;;;5034383;28;20073;-60
2021/04/22 07:33:10;;;;;;;9.27;2.20;;;18.40;45.00;;;;;;5033707;28;20105;-63
2021/04/22 07:35:38;;;;;;;5.32;2.00;;;18.30;44.20;;;;;;5036501;28;20628;-62
2021/04/22 07:38:13;;;;;;;8.40;1.65;;;18.40;44.00;;;;;;5034496;28;20073;-60
2021/04/22 07:40:40;;;;;;;9.63;2.03;;;18.40;44.10;;;;;;5035576;28;20131;-62
2021/04/22 07:43:08;;;;;;;3.72;1.65;;;18.40;44.50;;;;;;5035220;28;20085;-62
2021/04/22 07:45:41;;;;;;;5.75;1.50;;;18.40;44.70;;;;;;5034927;28;20169;-61
2021/04/22 07:48:09;;;;;;;4.97;1.95;;;18.30;44.90;;;;;;5034654;28;20075;-60
2021/04/22 07:50:36;;;;;;;7.00;1.70;;;18.30;45.10;;;;;;5035547;28;20158;-62
2021/04/22 07:53:06;;;;;;;6.53;1.75;;;18.20;45.20;;;;;;5034961;28;20104;-61
2021/04/22 07:55:39;;;;;;;5.80;1.83;;;18.20;45.30;;;;;;5034534;28;20076;-61
2021/04/22 07:58:07;;;;;;;6.50;1.80;;;18.20;45.60;;;;;;5031999;28;20139;-61
2021/04/22 08:00:34;;;;;;;7.57;2.10;;;18.20;45.70;;;;;;5031129;28;20117;-61
2021/04/22 08:03:02;;;;;;;7.50;1.85;;;18.10;45.80;;;;;;5031104;28;20082;-62
2021/04/22 08:05:35;;;;;;;4.88;1.60;;;18.10;46.10;;;;;;5032047;28;20152;-61
2021/04/22 08:08:03;;;;;;;6.82;2.08;;;18.00;46.40;;;;;;5031748;28;20073;-62
2021/04/22 08:10:32;;;;;;;6.63;1.67;;;18.00;46.60;;;;;;5031015;28;20076;-62
2021/04/22 08:13:02;;;;;;;5.07;1.65;;;18.00;46.90;;;;;;5031572;28;20415;-60
2021/04/22 08:15:29;;;;;;;5.45;1.65;;;18.00;47.00;;;;;;5028801;28;20519;-61
2021/04/22 08:17:56;;;;;;;9.88;1.63;;;18.00;47.10;;;;;;5031353;28;20546;-62
2021/04/22 08:20:25;;;;;;;;;;;18.00;47.10;;;;;;5030636;28;20077;-60
2021/04/22 08:22:54;;;;;;;6.88;2.00;;;18.00;47.00;;;;;;5031377;28;19979;-62
2021/04/22 08:25:25;;;;;;;9.48;1.88;;;17.90;47.10;;;;;;5030610;28;20082;-61
2021/04/22 08:27:54;;;;;;;6.22;2.08;;;17.90;47.10;;;;;;5032549;28;20488;-61
2021/04/22 08:30:25;;;;;;;7.30;1.80;;;17.90;46.90;;;;;;5030935;28;20132;-61
2021/04/22 08:32:52;;;;;;;8.23;1.52;;;18.00;47.00;;;;;;5031201;28;20462;-60
2021/04/22 08:35:18;;;;;;;5.47;1.70;;;18.00;46.90;;;;;;5031297;28;20106;-61
2021/04/22 08:37:45;;;;;;;4.00;1.35;;;17.90;46.80;;;;;;5029166;28;20116;-61
2021/04/22 08:40:13;;;;;;;;;;;17.90;46.90;;;;;;5031871;28;20116;-62
2021/04/22 08:42:41;;;;;;;4.78;1.88;;;17.90;46.90;;;;;;5031949;28;19966;-59
2021/04/22 08:45:11;;;;;;;7.85;1.52;;;17.80;47.10;;;;;;5030111;28;20538;-58
2021/04/22 08:47:39;;;;;;;6.65;1.42;;;17.80;47.00;;;;;;5031837;28;20089;-61
2021/04/22 08:50:10;;;;;;;9.38;1.73;;;17.80;47.10;;;;;;5030951;28;20485;-62
2021/04/22 08:52:37;;;;;;;5.40;1.77;;;17.80;47.00;;;;;;5030287;28;20113;-62
2021/04/22 08:55:09;;;;;;;7.28;1.60;;;17.90;47.10;;;;;;5029561;28;20531;-61
2021/04/22 08:57:36;;;;;;;7.38;1.60;;;17.80;47.10;;;;;;5029906;28;20582;-62
2021/04/22 09:00:07;;;;;;;6.15;1.50;;;17.80;47.10;;;;;;5031427;28;20102;-63
2021/04/22 09:02:34;;;;;;;5.35;1.50;;;17.80;47.00;;;;;;5031612;28;20539;-62
2021/04/22 09:05:00;;;;;;;;;;;17.90;47.20;;;;;;5031048;28;20078;-63
2021/04/22 09:07:26;;;;;;;7.97;1.60;;;17.80;47.20;;;;;;5029678;28;19958;-62
2021/04/22 09:09:53;;;;;;;12.45;2.05;;;17.80;47.40;;;;;;5028680;28;20070;-62
2021/04/22 09:12:20;;;;;;;;;;;17.80;47.40;;;;;;5030561;28;20073;-62
2021/04/22 09:14:59;;;;;;;6.75;1.80;;;17.80;47.30;;;;;;5030727;28;20048;-61
2021/04/22 09:17:27;;;;;;;6.65;1.50;;;17.80;47.10;;;;;;5030977;28;20504;-61
2021/04/22 09:19:54;;;;;;;6.45;1.80;;;17.90;47.10;;;;;;5030502;28;20081;-61
2021/04/22 09:22:33;;;;;;;6.90;2.30;;;17.90;46.90;;;;;;5029942;28;20086;-62
2021/04/22 09:25:15;;;;;;;6.18;1.60;;;17.90;47.00;;;;;;5029735;28;20070;-62
2021/04/22 09:27:42;;;;;;;9.98;1.70;;;17.90;46.80;;;;;;5030035;28;20113;-60
2021/04/22 09:30:10;;;;;;;8.73;1.60;;;17.80;46.80;;;;;;5029546;28;20175;-61
2021/04/22 09:32:38;;;;;;;3.55;1.30;;;17.90;46.80;;;;;;5030761;28;20550;-61
2021/04/22 09:35:15;;;;;;;7.72;1.50;;;17.90;46.60;;;;;;5030711;28;20078;-60
2021/04/22 09:37:50;;;;;;;4.75;1.55;;;17.90;46.60;;;;;;5029249;28;20120;-56
2021/04/22 09:40:17;;;;;;;4.93;1.42;;;17.80;46.40;;;;;;5031734;28;20077;-61
2021/04/22 09:42:43;;;;;;;4.80;1.30;;;17.90;46.30;;;;;;5028929;28;20157;-59
2021/04/22 09:45:12;;;;;;;8.52;1.67;;;17.90;46.20;;;;;;5029320;28;20089;-62
2021/04/22 09:47:39;;;;;;;7.00;1.33;;;17.90;46.20;;;;;;5028725;28;20534;-62
2021/04/22 09:50:10;;;;;;;;;;;17.90;46.00;;;;;;5030020;28;20456;-63
2021/04/22 09:52:40;;;;;;;6.35;1.17;;;17.90;45.90;;;;;;5029774;28;20000;-61
2021/04/22 09:55:10;;;;;;;7.82;1.42;;;17.90;45.90;;;;;;5030143;28;20077;-62
2021/04/22 09:57:37;;;;;;;6.00;1.20;;;17.90;46.00;;;;;;5027712;28;20078;-62
2021/04/22 10:00:28;;;;;;;10.63;1.52;;;18.00;45.90;;;;;;5029458;28;20209;-62
2021/04/22 10:02:58;;;;;;;6.32;1.30;;;17.90;45.90;;;;;;5025216;28;20139;-60
2021/04/22 10:05:31;;;;;;;7.85;1.20;;;18.00;45.80;;;;;;5028573;28;21515;-61
2021/04/22 10:08:05;;;;;;;4.57;1.50;;;17.90;45.90;;;;;;5029681;28;20078;-59
2021/04/22 10:10:33;;;;;;;5.20;1.20;;;17.90;46.10;;;;;;5029523;28;20182;-60
2021/04/22 10:13:12;;;;;;;6.28;1.05;;;17.90;46.20;;;;;;5029281;28;20094;-62
2021/04/22 10:15:49;;;;;;;5.07;1.30;;;17.90;46.10;;;;;;5029928;28;20074;-61
2021/04/22 10:18:16;;;;;;;1.77;0.95;;;17.80;46.50;;;;;;5031022;28;20127;-61
2021/04/22 10:20:43;;;;;;;3.47;0.93;;;17.90;46.40;;;;;;5029797;28;20145;-62
2021/04/22 10:23:10;;;;;;;8.23;1.10;;;17.90;46.40;;;;;;5030082;28;20485;-62
2021/04/22 10:25:40;;;;;;;7.80;1.20;;;17.90;46.20;;;;;;5030706;28;20070;-62
2021/04/22 10:28:11;;;;;;;4.95;0.98;;;17.90;46.30;;;;;;5030027;28;20854;-62
2021/04/22 10:30:44;;;;;;;4.28;1.02;;;17.90;46.40;;;;;;5028743;28;20089;-62
2021/04/22 10:33:11;;;;;;;7.15;1.10;;;17.90;46.30;;;;;;5028671;28;20562;-62
2021/04/22 10:35:41;;;;;;;5.75;1.00;;;17.90;46.20;;;;;;5028339;28;20070;-62
2021/04/22 10:38:09;;;;;;;4.78;1.20;;;17.90;46.10;;;;;;5029298;28;20077;-63
2021/04/22 10:40:41;;;;;;;6.88;1.60;;;17.90;46.20;;;;;;5029949;28;20078;-61
2021/04/22 10:43:15;;;;;;;11.50;1.42;;;17.80;46.20;;;;;;5028053;28;20208;-62
2021/04/22 10:45:41;;;;;;;6.10;1.08;;;17.80;46.20;;;;;;5029318;28;20143;-62
2021/04/22 10:48:07;;;;;;;;;;;17.80;46.30;;;;;;5028334;28;20161;-62
2021/04/22 10:50:43;;;;;;;8.73;1.45;;;17.80;46.20;;;;;;5029207;28;19961;-61
2021/04/22 10:53:14;;;;;;;5.18;1.30;;;17.80;46.20;;;;;;5028150;28;20208;-61
2021/04/22 10:55:44;;;;;;;4.43;1.30;;;17.90;46.00;;;;;;5027895;28;20070;-60
2021/04/22 10:58:37;;;;;;;5.55;1.48;;;17.90;46.00;;;;;;5026944;28;20104;-62
2021/04/22 11:01:08;;;;;;;4.78;1.08;;;17.80;46.20;;;;;;5029057;28;20181;-62
2021/04/22 11:03:34;;;;;;;5.82;0.98;;;17.80;46.60;;;;;;5028496;28;20935;-62
2021/04/22 11:06:05;;;;;;;;;;;17.80;46.60;;;;;;5030366;28;20081;-62
2021/04/22 11:08:50;;;;;;;9.68;0.90;;;17.80;46.60;;;;;;5029355;28;20015;-62
2021/04/22 11:11:30;;;;;;;1.13;0.75;;;17.70;47.30;;;;;;5029891;28;20128;-60
2021/04/22 11:14:17;;;;;;;6.90;1.25;;;17.70;47.10;;;;;;5030423;28;20612;-62
2021/04/22 11:16:49;;;;;;;6.22;0.80;;;17.60;47.50;;;;;;5029558;28;20077;-62
2021/04/22 11:19:17;;;;;;;6.35;1.10;;;17.60;47.80;;;;;;5029601;28;20080;-61
2021/04/22 11:21:56;;;;;;;8.50;0.98;;;17.50;48.30;;;;;;5028807;28;20084;-62
2021/04/22 11:24:39;;;;;;;7.70;1.20;;;17.50;48.60;;;;;;5029086;28;20074;-62
2021/04/22 11:27:12;;;;;;;4.10;1.00;;;17.40;48.90;;;;;;5027430;28;20132;-63
2021/04/22 11:29:59;;;;;;;3.67;0.90;;;17.40;49.00;;;;;;5029628;28;20082;-62
2021/04/22 11:32:26;;;;;;;8.50;1.00;;;17.40;49.20;;;;;;5029491;28;20069;-63
2021/04/22 11:34:53;;;;;;;;;;;17.30;49.30;;;;;;5033337;28;20588;-63
2021/04/22 11:37:43;;;;;;;7.50;0.95;;;17.30;49.40;;;;;;5031886;28;20438;-62
2021/04/22 11:40:27;;;;;;;7.70;1.00;;;17.20;49.50;;;;;;5031761;28;20082;-63
2021/04/22 11:42:56;;;;;;;6.95;0.80;;;17.20;49.60;;;;;;5031157;28;20149;-63
2021/04/22 11:45:28;;;;;;;5.30;1.10;;;17.20;49.80;;;;;;5033359;28;20081;-62
2021/04/22 11:48:06;;;;;;;6.57;0.98;;;17.10;49.90;;;;;;5032859;28;20181;-62
2021/04/22 11:50:47;;;;;;;8.02;1.20;;;17.10;50.10;;;;;;5031874;28;20087;-60
2021/04/22 11:53:14;;;;;;;5.70;1.55;;;17.10;50.30;;;;;;5031472;28;20116;-61
2021/04/22 11:56:08;;;;;;;7.07;1.23;;;17.10;50.10;;;;;;5031522;28;20101;-62
2021/04/22 11:58:35;;;;;;;6.90;1.13;;;17.00;50.20;;;;;;5031240;28;20572;-62
2021/04/22 12:01:05;;;;;;;3.75;1.15;;;17.00;50.20;;;;;;5030602;28;20129;-61
2021/04/22 12:03:34;;;;;;;12.00;1.63;;;17.00;50.30;;;;;;5047569;28;20084;-62
2021/04/22 12:06:07;;;;;;;3.55;1.00;;;17.00;50.40;;;;;;5031563;28;20116;-61
2021/04/22 12:08:39;;;;;;;6.05;1.15;;;17.00;50.50;;;;;;5033110;28;20070;-62
2021/04/22 12:11:08;;;;;;;4.75;1.10;;;17.00;50.40;;;;;;5031834;28;20074;-62
2021/04/22 12:13:35;;;;;;;7.35;1.20;;;17.00;50.40;;;;;;5030269;28;20106;-62
2021/04/22 12:16:08;;;;;;;5.65;1.33;;;17.00;50.20;;;;;;5032415;28;20094;-62
2021/04/22 12:18:37;;;;;;;5.75;1.27;;;17.00;50.20;;;;;;5030541;28;20085;-62
2021/04/22 12:21:10;;;;;;;6.22;1.60;;;17.00;50.30;;;;;;5031612;28;20078;-62
2021/04/22 12:23:39;;;;;;;3.05;1.00;;;17.00;50.40;;;;;;5032132;28;20066;-62
2021/04/22 12:26:29;;;;;;;2.92;1.35;;;16.90;50.50;;;;;;5031865;28;20594;-62
2021/04/22 12:29:06;;;;;;;7.00;1.40;;;16.90;50.30;;;;;;5032447;28;20105;-62
2021/04/22 12:31:35;;;;;;;;;;;17.00;50.20;;;;;;5031832;28;20160;-63
2021/04/22 12:34:16;;;;;;;7.43;1.17;;;17.00;50.30;;;;;;5031792;28;19977;-64
2021/04/22 12:36:57;;;;;;;7.22;1.38;;;16.90;50.40;;;;;;5031714;28;20408;-63
2021/04/22 12:39:36;;;;;;;5.07;1.52;;;17.00;50.30;;;;;;5032683;28;20111;-62
2021/04/22 12:42:23;;;;;;;5.97;1.48;;;16.90;50.30;;;;;;5032123;28;20527;-62
2021/04/22 12:45:00;;;;;;;5.97;1.60;;;16.90;50.40;;;;;;5028284;28;20105;-63
2021/04/22 12:47:57;;;;;;;8.68;1.42;;;16.90;50.40;;;;;;5031855;28;20088;-62
2021/04/22 12:50:23;;;;;;;5.50;1.38;;;16.90;50.30;;;;;;5030034;28;20566;-63
2021/04/22 12:53:09;;;;;;;8.88;1.17;;;16.80;50.50;;;;;;5029840;28;20108;-63
2021/04/22 12:55:41;;;;;;;10.40;1.48;;;16.90;50.80;;;;;;5030760;28;20073;-61
2021/04/22 12:58:09;;;;;;;6.80;1.90;;;16.90;50.50;;;;;;5031894;28;20109;-63
2021/04/22 13:00:47;;;;;;;6.88;1.35;;;16.80;50.50;;;;;;5030696;28;20153;-63